sensor_id;sensor_type;location;lat;lon;timestamp;P1;durP1;ratioP1;P2;durP2;ratioP2
28323;SDS011;15583;54.078;12.106;2023-02-08T00:02:21;21.92;;;11.35;;
28323;SDS011;15583;54.078;12.106;2023-02-08T00:04:47;25.67;;;12.98;;
28323;SDS011;15583;54.078;12.106;2023-02-08T00:07:13;26.73;;;12.68;;
28323;SDS011;15583;54.078;12.106;2023-02-08T00:09:39;23.25;;;11.77;;
28323;SDS011;15583;54.078;12.106;2023-02-08T00:12:05;24.52;;;12.07;;
28323;SDS011;15583;54.078;12.106;2023-02-08T00:14:31;25.33;;;12.10;;
28323;SDS011;15583;54.078;12.106;2023-02-08T00:16:57;24.65;;;11.85;;
28323;SDS011;15583;54.078;12.106;2023-02-08T00:19:23;22.38;;;11.85;;
28323;SDS011;15583;54.078;12.106;2023-02-08T00:21:49;26.15;;;13.48;;
28323;SDS011;15583;54.078;12.106;2023-02-08T00:24:15;24.58;;;13.02;;
28323;SDS011;15583;54.078;12.106;2023-02-08T00:26:41;23.65;;;12.23;;
28323;SDS011;15583;54.078;12.106;2023-02-08T00:29:07;24.83;;;12.60;;
28323;SDS011;15583;54.078;12.106;2023-02-08T00:31:33;23.80;;;12.23;;
28323;SDS011;15583;54.078;12.106;2023-02-08T00:33:59;24.38;;;12.93;;
28323;SDS011;15583;54.078;12.106;2023-02-08T00:36:25;24.85;;;12.30;;
28323;SDS011;15583;54.078;12.106;2023-02-08T00:38:51;26.15;;;13.02;;
28323;SDS011;15583;54.078;12.106;2023-02-08T00:41:17;23.65;;;13.10;;
28323;SDS011;15583;54.078;12.106;2023-02-08T00:43:44;23.50;;;11.77;;
28323;SDS011;15583;54.078;12.106;2023-02-08T00:46:10;30.27;;;13.05;;
28323;SDS011;15583;54.078;12.106;2023-02-08T00:48:36;25.42;;;12.95;;
28323;SDS011;15583;54.078;12.106;2023-02-08T00:51:09;24.05;;;13.43;;
28323;SDS011;15583;54.078;12.106;2023-02-08T00:53:38;27.40;;;13.25;;
28323;SDS011;15583;54.078;12.106;2023-02-08T00:56:05;23.77;;;12.75;;
28323;SDS011;15583;54.078;12.106;2023-02-08T00:58:31;23.60;;;11.68;;
28323;SDS011;15583;54.078;12.106;2023-02-08T01:00:57;21.88;;;12.43;;
28323;SDS011;15583;54.078;12.106;2023-02-08T01:03:23;28.50;;;13.60;;
28323;SDS011;15583;54.078;12.106;2023-02-08T01:05:49;22.70;;;11.48;;
28323;SDS011;15583;54.078;12.106;2023-02-08T01:08:15;24.00;;;12.40;;
28323;SDS011;15583;54.078;12.106;2023-02-08T01:10:43;25.77;;;12.50;;
28323;SDS011;15583;54.078;12.106;2023-02-08T01:13:09;29.55;;;13.55;;
28323;SDS011;15583;54.078;12.106;2023-02-08T01:15:35;24.63;;;13.05;;
28323;SDS011;15583;54.078;12.106;2023-02-08T01:18:01;23.10;;;11.55;;
28323;SDS011;15583;54.078;12.106;2023-02-08T01:20:27;25.25;;;12.30;;
28323;SDS011;15583;54.078;12.106;2023-02-08T01:22:54;23.80;;;12.68;;
28323;SDS011;15583;54.078;12.106;2023-02-08T01:25:20;27.55;;;12.65;;
28323;SDS011;15583;54.078;12.106;2023-02-08T01:27:46;25.75;;;13.27;;
28323;SDS011;15583;54.078;12.106;2023-02-08T01:30:12;26.23;;;12.50;;
28323;SDS011;15583;54.078;12.106;2023-02-08T01:32:38;27.30;;;12.48;;
28323;SDS011;15583;54.078;12.106;2023-02-08T01:35:04;27.40;;;12.45;;
28323;SDS011;15583;54.078;12.106;2023-02-08T01:37:30;24.60;;;11.95;;
28323;SDS011;15583;54.078;12.106;2023-02-08T01:39:56;26.48;;;13.15;;
28323;SDS011;15583;54.078;12.106;2023-02-08T01:42:22;22.90;;;12.20;;
28323;SDS011;15583;54.078;12.106;2023-02-08T01:45:15;23.40;;;12.82;;
28323;SDS011;15583;54.078;12.106;2023-02-08T01:47:45;24.65;;;12.35;;
28323;SDS011;15583;54.078;12.106;2023-02-08T01:50:12;27.63;;;12.50;;
28323;SDS011;15583;54.078;12.106;2023-02-08T01:52:38;23.92;;;12.32;;
28323;SDS011;15583;54.078;12.106;2023-02-08T01:55:08;22.35;;;12.18;;
28323;SDS011;15583;54.078;12.106;2023-02-08T01:57:36;21.83;;;11.82;;
28323;SDS011;15583;54.078;12.106;2023-02-08T02:00:06;24.42;;;12.65;;
28323;SDS011;15583;54.078;12.106;2023-02-08T02:02:34;26.40;;;11.38;;
28323;SDS011;15583;54.078;12.106;2023-02-08T02:05:00;24.00;;;11.98;;
28323;SDS011;15583;54.078;12.106;2023-02-08T02:07:27;24.17;;;11.95;;
28323;SDS011;15583;54.078;12.106;2023-02-08T02:10:11;21.30;;;11.65;;
28323;SDS011;15583;54.078;12.106;2023-02-08T02:12:39;22.23;;;11.18;;
28323;SDS011;15583;54.078;12.106;2023-02-08T02:15:07;25.60;;;11.93;;
28323;SDS011;15583;54.078;12.106;2023-02-08T02:17:34;25.05;;;12.27;;
28323;SDS011;15583;54.078;12.106;2023-02-08T02:20:02;22.13;;;11.93;;
28323;SDS011;15583;54.078;12.106;2023-02-08T02:30:19;22.48;;;11.98;;
28323;SDS011;15583;54.078;12.106;2023-02-08T02:35:20;26.60;;;11.80;;
28323;SDS011;15583;54.078;12.106;2023-02-08T02:38:06;25.55;;;12.35;;
28323;SDS011;15583;54.078;12.106;2023-02-08T02:43:21;24.58;;;11.68;;
28323;SDS011;15583;54.078;12.106;2023-02-08T02:53:59;22.95;;;11.98;;
28323;SDS011;15583;54.078;12.106;2023-02-08T02:56:28;23.85;;;13.05;;
28323;SDS011;15583;54.078;12.106;2023-02-08T02:58:55;25.30;;;12.07;;
28323;SDS011;15583;54.078;12.106;2023-02-08T03:01:23;20.42;;;11.30;;
28323;SDS011;15583;54.078;12.106;2023-02-08T03:03:53;22.40;;;11.88;;
28323;SDS011;15583;54.078;12.106;2023-02-08T03:06:35;23.67;;;11.75;;
28323;SDS011;15583;54.078;12.106;2023-02-08T03:11:41;22.10;;;11.18;;
28323;SDS011;15583;54.078;12.106;2023-02-08T03:14:19;20.35;;;10.48;;
28323;SDS011;15583;54.078;12.106;2023-02-08T03:17:01;22.40;;;11.25;;
28323;SDS011;15583;54.078;12.106;2023-02-08T03:19:35;23.17;;;11.30;;
28323;SDS011;15583;54.078;12.106;2023-02-08T03:22:10;25.60;;;11.98;;
28323;SDS011;15583;54.078;12.106;2023-02-08T03:33:17;25.27;;;11.75;;
28323;SDS011;15583;54.078;12.106;2023-02-08T03:35:56;21.70;;;11.80;;
28323;SDS011;15583;54.078;12.106;2023-02-08T03:38:28;21.58;;;9.75;;
28323;SDS011;15583;54.078;12.106;2023-02-08T03:40:56;23.83;;;11.32;;
28323;SDS011;15583;54.078;12.106;2023-02-08T03:43:27;24.35;;;12.45;;
28323;SDS011;15583;54.078;12.106;2023-02-08T03:46:06;23.83;;;10.90;;
28323;SDS011;15583;54.078;12.106;2023-02-08T03:48:34;24.70;;;12.10;;
28323;SDS011;15583;54.078;12.106;2023-02-08T03:51:01;21.77;;;11.05;;
28323;SDS011;15583;54.078;12.106;2023-02-08T03:53:28;22.77;;;10.95;;
28323;SDS011;15583;54.078;12.106;2023-02-08T03:55:57;23.55;;;10.57;;
28323;SDS011;15583;54.078;12.106;2023-02-08T03:58:27;22.60;;;11.20;;
28323;SDS011;15583;54.078;12.106;2023-02-08T04:01:01;25.02;;;12.02;;
28323;SDS011;15583;54.078;12.106;2023-02-08T04:03:28;22.42;;;11.25;;
28323;SDS011;15583;54.078;12.106;2023-02-08T04:05:55;23.95;;;11.10;;
28323;SDS011;15583;54.078;12.106;2023-02-08T04:08:21;20.48;;;11.25;;
28323;SDS011;15583;54.078;12.106;2023-02-08T04:10:47;20.60;;;10.73;;
28323;SDS011;15583;54.078;12.106;2023-02-08T04:13:13;24.65;;;11.50;;
28323;SDS011;15583;54.078;12.106;2023-02-08T04:15:39;23.10;;;11.90;;
28323;SDS011;15583;54.078;12.106;2023-02-08T04:18:05;23.08;;;11.27;;
28323;SDS011;15583;54.078;12.106;2023-02-08T04:20:31;20.23;;;11.35;;
28323;SDS011;15583;54.078;12.106;2023-02-08T04:22:57;22.77;;;12.07;;
28323;SDS011;15583;54.078;12.106;2023-02-08T04:25:23;21.52;;;12.25;;
28323;SDS011;15583;54.078;12.106;2023-02-08T04:27:49;21.83;;;11.32;;
28323;SDS011;15583;54.078;12.106;2023-02-08T04:30:15;22.20;;;11.73;;
28323;SDS011;15583;54.078;12.106;2023-02-08T04:32:41;23.38;;;12.57;;
28323;SDS011;15583;54.078;12.106;2023-02-08T04:35:07;24.73;;;11.90;;
28323;SDS011;15583;54.078;12.106;2023-02-08T04:37:33;23.20;;;12.13;;
28323;SDS011;15583;54.078;12.106;2023-02-08T04:40:00;27.60;;;12.52;;
28323;SDS011;15583;54.078;12.106;2023-02-08T04:42:26;25.77;;;12.10;;
28323;SDS011;15583;54.078;12.106;2023-02-08T04:44:52;27.92;;;13.70;;
28323;SDS011;15583;54.078;12.106;2023-02-08T04:47:18;22.42;;;11.93;;
28323;SDS011;15583;54.078;12.106;2023-02-08T04:49:44;25.33;;;12.43;;
28323;SDS011;15583;54.078;12.106;2023-02-08T04:52:10;25.85;;;12.73;;
28323;SDS011;15583;54.078;12.106;2023-02-08T04:54:36;25.23;;;12.98;;
28323;SDS011;15583;54.078;12.106;2023-02-08T04:57:02;20.65;;;11.98;;
28323;SDS011;15583;54.078;12.106;2023-02-08T04:59:28;26.95;;;13.10;;
28323;SDS011;15583;54.078;12.106;2023-02-08T05:01:54;26.48;;;12.98;;
28323;SDS011;15583;54.078;12.106;2023-02-08T05:04:20;23.98;;;12.00;;
28323;SDS011;15583;54.078;12.106;2023-02-08T05:06:45;23.33;;;12.65;;
28323;SDS011;15583;54.078;12.106;2023-02-08T05:09:12;24.13;;;13.38;;
28323;SDS011;15583;54.078;12.106;2023-02-08T05:11:38;29.27;;;13.52;;
28323;SDS011;15583;54.078;12.106;2023-02-08T05:14:04;28.92;;;13.55;;
28323;SDS011;15583;54.078;12.106;2023-02-08T05:16:30;27.00;;;12.45;;
28323;SDS011;15583;54.078;12.106;2023-02-08T05:18:56;24.23;;;12.95;;
28323;SDS011;15583;54.078;12.106;2023-02-08T05:21:22;26.42;;;13.88;;
28323;SDS011;15583;54.078;12.106;2023-02-08T05:23:48;27.60;;;13.77;;
28323;SDS011;15583;54.078;12.106;2023-02-08T05:26:14;25.13;;;13.68;;
28323;SDS011;15583;54.078;12.106;2023-02-08T05:28:41;26.00;;;13.40;;
28323;SDS011;15583;54.078;12.106;2023-02-08T05:31:11;26.45;;;14.00;;
28323;SDS011;15583;54.078;12.106;2023-02-08T05:33:37;28.38;;;14.07;;
28323;SDS011;15583;54.078;12.106;2023-02-08T05:36:03;27.90;;;13.73;;
28323;SDS011;15583;54.078;12.106;2023-02-08T05:38:29;25.77;;;13.77;;
28323;SDS011;15583;54.078;12.106;2023-02-08T05:40:55;25.85;;;13.32;;
28323;SDS011;15583;54.078;12.106;2023-02-08T05:43:22;28.35;;;14.30;;
28323;SDS011;15583;54.078;12.106;2023-02-08T05:45:49;26.95;;;13.98;;
28323;SDS011;15583;54.078;12.106;2023-02-08T05:48:15;29.70;;;16.10;;
28323;SDS011;15583;54.078;12.106;2023-02-08T05:50:41;27.08;;;14.18;;
28323;SDS011;15583;54.078;12.106;2023-02-08T05:53:07;26.33;;;14.88;;
28323;SDS011;15583;54.078;12.106;2023-02-08T05:55:33;28.15;;;14.05;;
28323;SDS011;15583;54.078;12.106;2023-02-08T05:57:59;26.92;;;14.02;;
28323;SDS011;15583;54.078;12.106;2023-02-08T06:00:25;27.13;;;15.45;;
28323;SDS011;15583;54.078;12.106;2023-02-08T06:02:51;29.63;;;14.10;;
28323;SDS011;15583;54.078;12.106;2023-02-08T06:05:17;24.95;;;13.90;;
28323;SDS011;15583;54.078;12.106;2023-02-08T06:07:43;29.42;;;14.00;;
28323;SDS011;15583;54.078;12.106;2023-02-08T06:10:09;27.00;;;13.82;;
28323;SDS011;15583;54.078;12.106;2023-02-08T06:12:35;27.27;;;14.00;;
28323;SDS011;15583;54.078;12.106;2023-02-08T06:15:01;29.85;;;14.55;;
28323;SDS011;15583;54.078;12.106;2023-02-08T06:17:27;26.48;;;14.60;;
28323;SDS011;15583;54.078;12.106;2023-02-08T06:19:53;30.13;;;14.68;;
28323;SDS011;15583;54.078;12.106;2023-02-08T06:22:19;28.92;;;14.68;;
28323;SDS011;15583;54.078;12.106;2023-02-08T06:24:45;26.13;;;13.20;;
28323;SDS011;15583;54.078;12.106;2023-02-08T06:27:12;31.33;;;14.25;;
28323;SDS011;15583;54.078;12.106;2023-02-08T06:29:38;27.90;;;15.23;;
28323;SDS011;15583;54.078;12.106;2023-02-08T06:32:04;28.95;;;14.73;;
28323;SDS011;15583;54.078;12.106;2023-02-08T06:34:30;30.13;;;14.63;;
28323;SDS011;15583;54.078;12.106;2023-02-08T06:36:56;26.60;;;14.55;;
28323;SDS011;15583;54.078;12.106;2023-02-08T06:39:26;32.25;;;14.57;;
28323;SDS011;15583;54.078;12.106;2023-02-08T06:41:52;27.25;;;14.57;;
28323;SDS011;15583;54.078;12.106;2023-02-08T06:44:17;30.35;;;15.52;;
28323;SDS011;15583;54.078;12.106;2023-02-08T06:46:43;30.50;;;15.02;;
28323;SDS011;15583;54.078;12.106;2023-02-08T06:49:10;27.67;;;15.45;;
28323;SDS011;15583;54.078;12.106;2023-02-08T06:51:36;29.80;;;15.07;;
28323;SDS011;15583;54.078;12.106;2023-02-08T06:54:01;29.50;;;15.52;;
28323;SDS011;15583;54.078;12.106;2023-02-08T06:56:27;26.60;;;13.77;;
28323;SDS011;15583;54.078;12.106;2023-02-08T06:58:55;28.83;;;13.77;;
28323;SDS011;15583;54.078;12.106;2023-02-08T07:01:21;32.42;;;15.57;;
28323;SDS011;15583;54.078;12.106;2023-02-08T07:03:47;29.80;;;13.98;;
28323;SDS011;15583;54.078;12.106;2023-02-08T07:06:14;28.77;;;14.40;;
28323;SDS011;15583;54.078;12.106;2023-02-08T07:08:40;26.88;;;14.35;;
28323;SDS011;15583;54.078;12.106;2023-02-08T07:11:07;31.17;;;15.05;;
28323;SDS011;15583;54.078;12.106;2023-02-08T07:13:34;35.30;;;15.38;;
28323;SDS011;15583;54.078;12.106;2023-02-08T07:15:59;32.65;;;15.93;;
28323;SDS011;15583;54.078;12.106;2023-02-08T07:18:25;29.80;;;15.75;;
28323;SDS011;15583;54.078;12.106;2023-02-08T07:20:51;27.75;;;15.60;;
28323;SDS011;15583;54.078;12.106;2023-02-08T07:23:17;32.25;;;15.73;;
28323;SDS011;15583;54.078;12.106;2023-02-08T07:25:43;29.10;;;15.80;;
28323;SDS011;15583;54.078;12.106;2023-02-08T07:28:09;29.70;;;14.45;;
28323;SDS011;15583;54.078;12.106;2023-02-08T07:30:35;28.55;;;14.32;;
28323;SDS011;15583;54.078;12.106;2023-02-08T07:33:01;35.35;;;15.80;;
28323;SDS011;15583;54.078;12.106;2023-02-08T07:35:27;31.63;;;15.45;;
28323;SDS011;15583;54.078;12.106;2023-02-08T07:37:53;26.77;;;14.60;;
28323;SDS011;15583;54.078;12.106;2023-02-08T07:40:19;30.10;;;15.05;;
28323;SDS011;15583;54.078;12.106;2023-02-08T07:42:45;28.23;;;15.20;;
28323;SDS011;15583;54.078;12.106;2023-02-08T07:45:11;31.27;;;14.98;;
28323;SDS011;15583;54.078;12.106;2023-02-08T07:47:37;27.52;;;15.25;;
28323;SDS011;15583;54.078;12.106;2023-02-08T07:50:03;29.48;;;15.63;;
28323;SDS011;15583;54.078;12.106;2023-02-08T07:52:29;29.85;;;15.23;;
28323;SDS011;15583;54.078;12.106;2023-02-08T07:54:55;30.50;;;14.18;;
28323;SDS011;15583;54.078;12.106;2023-02-08T07:57:21;31.48;;;15.68;;
28323;SDS011;15583;54.078;12.106;2023-02-08T07:59:47;28.83;;;15.85;;
28323;SDS011;15583;54.078;12.106;2023-02-08T08:02:14;31.63;;;16.17;;
28323;SDS011;15583;54.078;12.106;2023-02-08T08:04:40;27.45;;;13.27;;
28323;SDS011;15583;54.078;12.106;2023-02-08T08:07:06;28.63;;;14.90;;
28323;SDS011;15583;54.078;12.106;2023-02-08T08:09:32;29.95;;;15.90;;
28323;SDS011;15583;54.078;12.106;2023-02-08T08:11:58;27.52;;;14.88;;
28323;SDS011;15583;54.078;12.106;2023-02-08T08:14:24;24.48;;;14.82;;
28323;SDS011;15583;54.078;12.106;2023-02-08T08:16:50;25.70;;;14.93;;
28323;SDS011;15583;54.078;12.106;2023-02-08T08:19:16;29.65;;;15.43;;
28323;SDS011;15583;54.078;12.106;2023-02-08T08:21:42;31.92;;;14.63;;
28323;SDS011;15583;54.078;12.106;2023-02-08T08:24:07;26.45;;;14.73;;
28323;SDS011;15583;54.078;12.106;2023-02-08T08:26:33;29.35;;;14.35;;
28323;SDS011;15583;54.078;12.106;2023-02-08T08:28:59;28.70;;;14.60;;
28323;SDS011;15583;54.078;12.106;2023-02-08T08:31:26;26.38;;;15.18;;
28323;SDS011;15583;54.078;12.106;2023-02-08T08:33:54;27.38;;;15.07;;
28323;SDS011;15583;54.078;12.106;2023-02-08T08:36:20;27.00;;;14.38;;
28323;SDS011;15583;54.078;12.106;2023-02-08T08:38:46;30.05;;;15.63;;
28323;SDS011;15583;54.078;12.106;2023-02-08T08:41:13;29.80;;;16.52;;
28323;SDS011;15583;54.078;12.106;2023-02-08T08:43:41;25.15;;;14.65;;
28323;SDS011;15583;54.078;12.106;2023-02-08T08:46:07;30.25;;;16.05;;
28323;SDS011;15583;54.078;12.106;2023-02-08T08:48:34;30.88;;;16.08;;
28323;SDS011;15583;54.078;12.106;2023-02-08T08:51:02;28.40;;;16.20;;
28323;SDS011;15583;54.078;12.106;2023-02-08T08:53:28;28.60;;;15.60;;
28323;SDS011;15583;54.078;12.106;2023-02-08T08:55:54;27.83;;;15.77;;
28323;SDS011;15583;54.078;12.106;2023-02-08T08:58:20;29.98;;;16.25;;
28323;SDS011;15583;54.078;12.106;2023-02-08T09:00:46;33.10;;;16.95;;
28323;SDS011;15583;54.078;12.106;2023-02-08T09:03:12;30.63;;;17.35;;
28323;SDS011;15583;54.078;12.106;2023-02-08T09:05:38;30.38;;;16.05;;
28323;SDS011;15583;54.078;12.106;2023-02-08T09:08:04;30.48;;;17.58;;
28323;SDS011;15583;54.078;12.106;2023-02-08T09:10:30;29.10;;;17.63;;
28323;SDS011;15583;54.078;12.106;2023-02-08T09:12:56;31.58;;;16.83;;
28323;SDS011;15583;54.078;12.106;2023-02-08T09:15:23;33.45;;;17.25;;
28323;SDS011;15583;54.078;12.106;2023-02-08T09:17:49;30.85;;;17.02;;
28323;SDS011;15583;54.078;12.106;2023-02-08T09:20:15;26.75;;;15.50;;
28323;SDS011;15583;54.078;12.106;2023-02-08T09:22:41;32.28;;;17.65;;
28323;SDS011;15583;54.078;12.106;2023-02-08T09:25:07;30.77;;;16.83;;
28323;SDS011;15583;54.078;12.106;2023-02-08T09:27:34;29.00;;;16.83;;
28323;SDS011;15583;54.078;12.106;2023-02-08T09:30:00;29.48;;;16.02;;
28323;SDS011;15583;54.078;12.106;2023-02-08T09:32:26;31.00;;;16.92;;
28323;SDS011;15583;54.078;12.106;2023-02-08T09:34:52;31.77;;;17.13;;
28323;SDS011;15583;54.078;12.106;2023-02-08T09:37:17;29.42;;;17.17;;
28323;SDS011;15583;54.078;12.106;2023-02-08T09:39:43;33.03;;;17.23;;
28323;SDS011;15583;54.078;12.106;2023-02-08T09:47:43;29.58;;;15.77;;
28323;SDS011;15583;54.078;12.106;2023-02-08T09:50:12;31.10;;;17.40;;
28323;SDS011;15583;54.078;12.106;2023-02-08T09:52:40;26.70;;;16.60;;
28323;SDS011;15583;54.078;12.106;2023-02-08T09:55:19;31.08;;;16.20;;
28323;SDS011;15583;54.078;12.106;2023-02-08T09:57:46;33.97;;;16.48;;
28323;SDS011;15583;54.078;12.106;2023-02-08T10:00:14;28.42;;;16.80;;
28323;SDS011;15583;54.078;12.106;2023-02-08T10:02:40;29.75;;;16.00;;
28323;SDS011;15583;54.078;12.106;2023-02-08T10:05:21;28.42;;;15.63;;
28323;SDS011;15583;54.078;12.106;2023-02-08T10:07:47;27.73;;;15.93;;
28323;SDS011;15583;54.078;12.106;2023-02-08T10:10:24;26.13;;;15.48;;
28323;SDS011;15583;54.078;12.106;2023-02-08T10:13:05;26.20;;;15.93;;
28323;SDS011;15583;54.078;12.106;2023-02-08T10:15:43;26.40;;;15.23;;
28323;SDS011;15583;54.078;12.106;2023-02-08T10:18:18;27.45;;;14.95;;
28323;SDS011;15583;54.078;12.106;2023-02-08T10:31:15;25.42;;;15.40;;
28323;SDS011;15583;54.078;12.106;2023-02-08T10:33:50;26.60;;;14.70;;
28323;SDS011;15583;54.078;12.106;2023-02-08T10:36:20;25.73;;;15.30;;
28323;SDS011;15583;54.078;12.106;2023-02-08T10:38:48;25.42;;;15.13;;
28323;SDS011;15583;54.078;12.106;2023-02-08T10:41:17;23.15;;;14.02;;
28323;SDS011;15583;54.078;12.106;2023-02-08T10:43:50;27.85;;;15.32;;
28323;SDS011;15583;54.078;12.106;2023-02-08T10:46:26;23.75;;;14.38;;
28323;SDS011;15583;54.078;12.106;2023-02-08T10:49:10;24.10;;;14.45;;
28323;SDS011;15583;54.078;12.106;2023-02-08T10:51:39;24.20;;;13.55;;
28323;SDS011;15583;54.078;12.106;2023-02-08T10:54:09;22.25;;;13.30;;
28323;SDS011;15583;54.078;12.106;2023-02-08T10:56:43;20.27;;;12.40;;
28323;SDS011;15583;54.078;12.106;2023-02-08T10:59:15;24.25;;;13.98;;
28323;SDS011;15583;54.078;12.106;2023-02-08T11:01:42;24.52;;;15.00;;
28323;SDS011;15583;54.078;12.106;2023-02-08T11:04:09;22.20;;;14.35;;
28323;SDS011;15583;54.078;12.106;2023-02-08T11:06:35;24.05;;;14.45;;
28323;SDS011;15583;54.078;12.106;2023-02-08T11:09:02;20.95;;;12.85;;
28323;SDS011;15583;54.078;12.106;2023-02-08T11:11:32;21.42;;;13.70;;
28323;SDS011;15583;54.078;12.106;2023-02-08T11:14:06;25.00;;;14.38;;
28323;SDS011;15583;54.078;12.106;2023-02-08T11:16:32;21.23;;;12.63;;
28323;SDS011;15583;54.078;12.106;2023-02-08T11:18:59;22.98;;;13.00;;
28323;SDS011;15583;54.078;12.106;2023-02-08T11:21:27;19.75;;;13.05;;
28323;SDS011;15583;54.078;12.106;2023-02-08T11:23:57;21.52;;;13.57;;
28323;SDS011;15583;54.078;12.106;2023-02-08T11:26:29;23.35;;;14.02;;
28323;SDS011;15583;54.078;12.106;2023-02-08T11:31:25;19.48;;;12.82;;
28323;SDS011;15583;54.078;12.106;2023-02-08T11:34:04;20.48;;;13.13;;
28323;SDS011;15583;54.078;12.106;2023-02-08T11:36:31;23.33;;;13.18;;
28323;SDS011;15583;54.078;12.106;2023-02-08T11:38:59;19.85;;;12.32;;
28323;SDS011;15583;54.078;12.106;2023-02-08T11:41:25;21.13;;;12.20;;
28323;SDS011;15583;54.078;12.106;2023-02-08T11:43:54;21.48;;;12.60;;
28323;SDS011;15583;54.078;12.106;2023-02-08T11:46:22;21.80;;;12.57;;
28323;SDS011;15583;54.078;12.106;2023-02-08T11:48:50;19.35;;;12.10;;
28323;SDS011;15583;54.078;12.106;2023-02-08T11:51:26;23.67;;;12.90;;
28323;SDS011;15583;54.078;12.106;2023-02-08T11:53:53;22.17;;;12.43;;
28323;SDS011;15583;54.078;12.106;2023-02-08T11:56:25;21.63;;;12.10;;
28323;SDS011;15583;54.078;12.106;2023-02-08T11:58:55;19.23;;;12.13;;
28323;SDS011;15583;54.078;12.106;2023-02-08T12:01:24;21.75;;;12.50;;
28323;SDS011;15583;54.078;12.106;2023-02-08T12:03:50;24.00;;;12.25;;
28323;SDS011;15583;54.078;12.106;2023-02-08T12:11:34;19.98;;;12.00;;
28323;SDS011;15583;54.078;12.106;2023-02-08T12:24:43;21.08;;;12.35;;
28323;SDS011;15583;54.078;12.106;2023-02-08T12:29:57;23.73;;;13.18;;
28323;SDS011;15583;54.078;12.106;2023-02-08T12:32:48;21.20;;;11.98;;
28323;SDS011;15583;54.078;12.106;2023-02-08T12:48:49;20.55;;;12.90;;
28323;SDS011;15583;54.078;12.106;2023-02-08T12:52:01;23.00;;;13.18;;
28323;SDS011;15583;54.078;12.106;2023-02-08T12:54:08;23.58;;;13.32;;
28323;SDS011;15583;54.078;12.106;2023-02-08T12:56:39;18.73;;;12.07;;
28323;SDS011;15583;54.078;12.106;2023-02-08T12:59:09;20.15;;;12.43;;
28323;SDS011;15583;54.078;12.106;2023-02-08T13:01:39;20.25;;;11.90;;
28323;SDS011;15583;54.078;12.106;2023-02-08T13:06:42;22.08;;;12.75;;
28323;SDS011;15583;54.078;12.106;2023-02-08T13:11:39;24.35;;;13.35;;
28323;SDS011;15583;54.078;12.106;2023-02-08T13:14:14;22.85;;;12.80;;
28323;SDS011;15583;54.078;12.106;2023-02-08T13:16:48;21.38;;;12.82;;
28323;SDS011;15583;54.078;12.106;2023-02-08T13:19:31;21.92;;;12.13;;
28323;SDS011;15583;54.078;12.106;2023-02-08T13:21:58;20.50;;;12.32;;
28323;SDS011;15583;54.078;12.106;2023-02-08T13:24:30;18.98;;;11.75;;
28323;SDS011;15583;54.078;12.106;2023-02-08T13:26:57;19.50;;;12.45;;
28323;SDS011;15583;54.078;12.106;2023-02-08T13:29:23;23.10;;;13.18;;
28323;SDS011;15583;54.078;12.106;2023-02-08T13:31:51;20.58;;;12.45;;
28323;SDS011;15583;54.078;12.106;2023-02-08T13:34:27;19.58;;;12.82;;
28323;SDS011;15583;54.078;12.106;2023-02-08T13:36:55;19.58;;;12.18;;
28323;SDS011;15583;54.078;12.106;2023-02-08T13:39:31;20.13;;;12.55;;
28323;SDS011;15583;54.078;12.106;2023-02-08T13:41:58;22.00;;;13.23;;
28323;SDS011;15583;54.078;12.106;2023-02-08T13:44:29;20.40;;;13.52;;
28323;SDS011;15583;54.078;12.106;2023-02-08T13:46:56;19.80;;;12.80;;
28323;SDS011;15583;54.078;12.106;2023-02-08T13:52:07;21.58;;;12.82;;
28323;SDS011;15583;54.078;12.106;2023-02-08T13:54:34;19.80;;;12.60;;
28323;SDS011;15583;54.078;12.106;2023-02-08T13:56:59;25.27;;;14.70;;
28323;SDS011;15583;54.078;12.106;2023-02-08T14:04:37;21.80;;;12.65;;
28323;SDS011;15583;54.078;12.106;2023-02-08T14:07:14;19.55;;;11.82;;
28323;SDS011;15583;54.078;12.106;2023-02-08T14:12:29;21.60;;;12.52;;
28323;SDS011;15583;54.078;12.106;2023-02-08T14:17:41;18.90;;;12.32;;
28323;SDS011;15583;54.078;12.106;2023-02-08T14:20:13;21.38;;;12.13;;
28323;SDS011;15583;54.078;12.106;2023-02-08T14:22:47;20.25;;;12.85;;
28323;SDS011;15583;54.078;12.106;2023-02-08T14:25:25;21.42;;;12.98;;
28323;SDS011;15583;54.078;12.106;2023-02-08T14:28:01;21.27;;;12.75;;
28323;SDS011;15583;54.078;12.106;2023-02-08T14:30:28;19.08;;;12.55;;
28323;SDS011;15583;54.078;12.106;2023-02-08T14:35:32;20.27;;;11.73;;
28323;SDS011;15583;54.078;12.106;2023-02-08T14:40:48;21.02;;;11.90;;
28323;SDS011;15583;54.078;12.106;2023-02-08T14:45:45;24.63;;;12.68;;
28323;SDS011;15583;54.078;12.106;2023-02-08T14:48:22;21.15;;;12.38;;
28323;SDS011;15583;54.078;12.106;2023-02-08T14:50:49;22.15;;;12.98;;
28323;SDS011;15583;54.078;12.106;2023-02-08T14:53:17;21.50;;;13.07;;
28323;SDS011;15583;54.078;12.106;2023-02-08T14:55:46;21.55;;;13.68;;
28323;SDS011;15583;54.078;12.106;2023-02-08T14:58:14;22.17;;;12.77;;
28323;SDS011;15583;54.078;12.106;2023-02-08T15:00:46;24.05;;;13.52;;
28323;SDS011;15583;54.078;12.106;2023-02-08T15:03:15;22.45;;;13.73;;
28323;SDS011;15583;54.078;12.106;2023-02-08T15:05:48;28.15;;;13.57;;
28323;SDS011;15583;54.078;12.106;2023-02-08T15:08:24;23.48;;;12.93;;
28323;SDS011;15583;54.078;12.106;2023-02-08T15:10:50;24.15;;;13.20;;
28323;SDS011;15583;54.078;12.106;2023-02-08T15:13:17;21.10;;;13.55;;
28323;SDS011;15583;54.078;12.106;2023-02-08T15:15:44;21.60;;;13.15;;
28323;SDS011;15583;54.078;12.106;2023-02-08T15:18:16;22.27;;;14.13;;
28323;SDS011;15583;54.078;12.106;2023-02-08T15:20:58;25.08;;;13.88;;
28323;SDS011;15583;54.078;12.106;2023-02-08T15:23:24;22.67;;;13.95;;
28323;SDS011;15583;54.078;12.106;2023-02-08T15:25:55;24.67;;;14.20;;
28323;SDS011;15583;54.078;12.106;2023-02-08T15:28:22;22.40;;;13.82;;
28323;SDS011;15583;54.078;12.106;2023-02-08T15:30:52;25.30;;;14.10;;
28323;SDS011;15583;54.078;12.106;2023-02-08T15:33:19;25.70;;;13.95;;
28323;SDS011;15583;54.078;12.106;2023-02-08T15:35:46;28.05;;;14.02;;
28323;SDS011;15583;54.078;12.106;2023-02-08T15:38:20;26.83;;;14.88;;
28323;SDS011;15583;54.078;12.106;2023-02-08T15:41:06;29.05;;;14.43;;
28323;SDS011;15583;54.078;12.106;2023-02-08T15:43:33;24.67;;;13.07;;
28323;SDS011;15583;54.078;12.106;2023-02-08T15:46:01;25.77;;;13.90;;
28323;SDS011;15583;54.078;12.106;2023-02-08T15:48:27;25.25;;;14.23;;
28323;SDS011;15583;54.078;12.106;2023-02-08T15:50:54;23.52;;;13.40;;
28323;SDS011;15583;54.078;12.106;2023-02-08T15:53:20;22.55;;;13.38;;
28323;SDS011;15583;54.078;12.106;2023-02-08T15:55:48;21.33;;;13.10;;
28323;SDS011;15583;54.078;12.106;2023-02-08T15:58:27;23.92;;;13.85;;
28323;SDS011;15583;54.078;12.106;2023-02-08T16:00:55;24.83;;;13.75;;
28323;SDS011;15583;54.078;12.106;2023-02-08T16:03:22;21.13;;;13.25;;
28323;SDS011;15583;54.078;12.106;2023-02-08T16:05:49;23.70;;;14.07;;